Hatfield, Wisconsin
Current Conditions -  °F | °C
As of 10:55 PM on Saturday 22 Nov 2014 (Local Time) from KBCK Reporting Station
Haze Haze  
Wind Chill: 41°   Ceiling: 500
Heat Index: 41°   Visibility: 1.5mi
Dew Point: 41°   Wind: 3mph
Humidity: 100%   Direction: 150°SSE
Pressure: 29.64"   Gusts: NA
Location:  44.4455°N, 90.808°W
Report Text: KBCK 230455Z AUTO 15003KT 1 1/2SM BR OVC005 05/05 A2964 RMK AO2 T00500050
Loading
Personal Weather Stations






























Interactive Weather Map New forecast layout! Learn more

10-Day Weather Forecast

Advertisements
Track Severe Weather on mobile